Terminal Aerodrome Forecast
Issued by NWS

Home | Current Version | Previous Version | Text Only | Print | Product List | Glossary On
Versions: 1 2 3 4 5 6 7 8 9 10 11 12 13 14 15 16 17 18 19 20 21 22 23 24 25 26 27 28 29 30 31
000
FTUS43 KDLH 241100
TAFHIB
TAF
KHIB 241138Z 2412/2512 17007KT P6SM OVC008
     FM241700 17011G17KT P6SM BKN200
     FM242300 15007KT P6SM OVC200
     FM250800 16007KT P6SM VCSH OVC022=

USA.gov is the U.S. government's official web portal to all federal, state and local government web resources and services.